Time;durP1;ratioP1;P1;durP2;ratioP2;P2;SDS_P1;SDS_P2;PMS_P1;PMS_P2;Temp;Humidity;BMP_temperature;BMP_pressure;BME280_temperature;BME280_humidity;BME280_pressure;Samples;Min_cycle;Max_cycle;Signal;HPM_P1;HPM_P2
2022/02/24 00:01:10;;;;;;;79.10;29.73;;;;;;;3.62;97.44;99139.34;5068300;28;20088;-70
2022/02/24 00:03:36;;;;;;;61.90;22.80;;;;;;;3.71;97.66;99139.47;5068511;28;20021;-70
2022/02/24 00:06:01;;;;;;;60.63;23.60;;;;;;;3.75;97.84;99124.78;5068706;28;20063;-70
2022/02/24 00:08:27;;;;;;;47.53;20.63;;;;;;;3.82;97.83;99132.69;5068371;28;20027;-70
2022/02/24 00:10:52;;;;;;;51.50;20.02;;;;;;;3.91;97.49;99122.41;5068106;28;20025;-70
2022/02/24 00:13:18;;;;;;;66.22;25.35;;;;;;;3.89;96.89;99118.91;5068251;28;20083;-70
2022/02/24 00:15:43;;;;;;;60.08;26.38;;;;;;;3.73;96.83;99124.75;5067633;28;20126;-70
2022/02/24 00:18:09;;;;;;;64.35;25.20;;;;;;;3.65;96.54;99120.28;5067979;28;20020;-70
2022/02/24 00:20:35;;;;;;;63.22;25.83;;;;;;;3.64;97.36;99119.38;5067904;28;20228;-70
2022/02/24 00:23:00;;;;;;;55.95;21.70;;;;;;;3.80;97.73;99113.56;5067889;28;20079;-70
2022/02/24 00:25:26;;;;;;;55.22;23.17;;;;;;;3.84;97.74;99115.38;5068252;28;20074;-70
2022/02/24 00:27:51;;;;;;;43.88;17.92;;;;;;;3.95;97.96;99113.78;5068658;28;20021;-70
2022/02/24 00:30:16;;;;;;;49.83;18.83;;;;;;;3.97;97.92;99114.69;5068138;28;20317;-70
2022/02/24 00:32:42;;;;;;;60.55;25.10;;;;;;;3.81;97.74;99125.75;5067989;28;20091;-70
2022/02/24 00:35:08;;;;;;;58.53;21.60;;;;;;;3.89;97.41;99113.69;5068098;28;20356;-70
2022/02/24 00:37:33;;;;;;;63.25;23.85;;;;;;;3.99;97.09;99120.78;5067612;28;20205;-70
2022/02/24 00:39:59;;;;;;;65.78;24.42;;;;;;;4.00;97.33;99117.34;5067921;28;20016;-70
2022/02/24 00:42:24;;;;;;;60.53;23.20;;;;;;;4.02;97.53;99105.22;5067496;28;20084;-70
2022/02/24 00:44:50;;;;;;;50.70;20.42;;;;;;;4.09;97.35;99096.63;5067670;28;20016;-70
2022/02/24 00:47:15;;;;;;;50.75;21.83;;;;;;;4.03;97.11;99101.78;5067836;28;20024;-70
2022/02/24 00:49:41;;;;;;;52.15;22.73;;;;;;;4.04;97.18;99108.72;5067863;28;20027;-70
2022/02/24 00:52:07;;;;;;;63.63;23.75;;;;;;;3.97;97.02;99096.47;5067770;28;20017;-70
2022/02/24 00:54:33;;;;;;;41.75;18.55;;;;;;;4.00;97.12;99093.91;5068273;28;20021;-70
2022/02/24 00:56:59;;;;;;;47.85;19.17;;;;;;;4.13;97.12;99101.03;5068186;28;20031;-70
2022/02/24 00:59:24;;;;;;;64.70;24.77;;;;;;;4.16;96.78;99098.47;5068139;28;20040;-70
2022/02/24 01:01:49;;;;;;;60.20;24.15;;;;;;;4.14;97.32;99084.53;5068141;28;20025;-70
2022/02/24 01:04:16;;;;;;;50.75;21.45;;;;;;;4.19;97.32;99082.88;5068141;28;20021;-70
2022/02/24 01:06:41;;;;;;;41.70;19.85;;;;;;;4.27;97.18;99082.94;5067997;28;20044;-70
2022/02/24 01:09:07;;;;;;;55.17;19.73;;;;;;;4.32;96.95;99083.91;5068097;28;20025;-70
2022/02/24 01:11:32;;;;;;;46.00;20.63;;;;;;;4.38;97.04;99077.03;5067966;28;20100;-70
2022/02/24 01:13:57;;;;;;;52.50;21.30;;;;;;;4.40;97.08;99077.91;5067846;28;20044;-70
2022/02/24 01:16:23;;;;;;;54.97;21.75;;;;;;;4.47;97.69;99073.66;5068155;28;20032;-70
2022/02/24 01:18:49;;;;;;;41.10;18.75;;;;;;;4.46;97.18;99074.50;5067966;28;20244;-70
2022/02/24 01:21:14;;;;;;;41.15;18.80;;;;;;;4.47;96.99;99064.09;5067690;28;20028;-70
2022/02/24 01:23:40;;;;;;;46.50;19.17;;;;;;;4.45;96.91;99058.00;5067322;28;20020;-70
2022/02/24 01:26:05;;;;;;;39.85;17.60;;;;;;;4.39;96.86;99052.72;5067603;28;20063;-70
2022/02/24 01:28:31;;;;;;;25.67;12.00;;;;;;;4.65;96.91;99050.38;5070094;28;20020;-70
2022/02/24 01:30:56;;;;;;;35.63;13.98;;;;;;;4.74;97.85;99050.47;5071580;28;20078;-70
2022/02/24 01:33:21;;;;;;;30.02;14.25;;;;;;;4.92;97.42;99052.41;5071246;28;20205;-70
2022/02/24 01:35:47;;;;;;;24.98;8.52;;;;;;;5.22;96.56;99039.63;5070037;28;20016;-70
2022/02/24 01:38:12;;;;;;;40.88;16.45;;;;;;;5.15;96.45;99040.44;5071604;28;20321;-70
2022/02/24 01:40:38;;;;;;;37.38;16.17;;;;;;;5.21;96.26;98977.84;5071527;28;20032;-70
2022/02/24 01:43:03;;;;;;;8.48;2.78;;;;;;;5.54;96.09;98954.59;5071800;28;20027;-70
2022/02/24 01:45:29;;;;;;;9.82;3.60;;;;;;;5.72;95.16;99004.28;5072040;28;20088;-70
2022/02/24 01:47:58;;;;;;;29.60;9.77;;;;;;;5.81;94.29;98983.44;5071710;28;20032;-70
2022/02/24 01:50:25;;;;;;;39.67;17.08;;;;;;;5.65;94.17;98973.78;5072004;28;20027;-70
2022/02/24 01:52:51;;;;;;;30.63;12.32;;;;;;;5.65;94.68;98972.06;5071646;28;20063;-70
2022/02/24 01:55:16;;;;;;;35.38;15.30;;;;;;;5.64;94.46;98974.66;5071610;28;20092;-70
2022/02/24 01:57:42;;;;;;;21.27;8.48;;;;;;;5.69;95.46;98967.72;5071474;28;20025;-70
2022/02/24 02:00:11;;;;;;;14.88;7.22;;;;;;;5.66;95.16;98965.97;5071106;28;20117;-70
2022/02/24 02:02:36;;;;;;;3.95;2.00;;;;;;;6.00;93.63;98960.06;5070628;28;20390;-70
2022/02/24 02:05:02;;;;;;;10.95;3.95;;;;;;;6.15;93.63;98957.53;5070770;28;20096;-70
2022/02/24 02:07:28;;;;;;;11.45;5.18;;;;;;;6.17;93.07;98947.06;5070542;28;20017;-70
2022/02/24 02:09:53;;;;;;;8.93;3.47;;;;;;;6.22;92.91;98948.81;5070551;28;20097;-70
2022/02/24 02:12:20;;;;;;;21.40;6.70;;;;;;;6.19;91.14;98951.44;5070691;28;20244;-70
2022/02/24 02:14:46;;;;;;;9.57;3.72;;;;;;;6.30;91.32;98954.06;5071114;28;20186;-70
2022/02/24 02:17:11;;;;;;;12.85;4.20;;;;;;;6.35;90.86;98936.63;5071228;28;20043;-70
2022/02/24 02:19:37;;;;;;;16.13;6.85;;;;;;;6.19;91.80;98929.63;5071706;28;20085;-70
2022/02/24 02:22:03;;;;;;;9.18;4.47;;;;;;;6.14;92.02;98926.16;5071377;28;20032;-70
2022/02/24 02:24:29;;;;;;;9.90;3.08;;;;;;;6.21;92.49;98922.69;5070954;28;20217;-70
2022/02/24 02:26:54;;;;;;;7.60;1.73;;;;;;;6.41;91.21;98927.09;5071119;28;20025;-70
2022/02/24 02:29:20;;;;;;;4.55;2.20;;;;;;;6.49;90.63;98930.56;5070849;28;20017;-70
2022/02/24 02:31:45;;;;;;;11.10;1.70;;;;;;;6.61;89.41;98919.25;5070807;28;20027;-70
2022/02/24 02:34:17;;;;;;;7.28;2.15;;;;;;;6.71;88.94;98915.78;5071128;28;20021;-70
2022/02/24 02:36:45;;;;;;;7.05;1.67;;;;;;;6.83;88.33;98910.53;5070556;28;20052;-70
2022/02/24 02:39:11;;;;;;;9.05;1.65;;;;;;;6.88;87.85;98903.56;5070313;28;20021;-70
2022/02/24 02:41:39;;;;;;;3.88;1.33;;;;;;;6.96;87.16;98893.94;5070403;28;20020;-70
2022/02/24 02:44:06;;;;;;;5.93;2.00;;;;;;;6.98;86.44;98886.97;5069847;28;20312;-70
2022/02/24 02:46:32;;;;;;;2.30;1.23;;;;;;;7.06;87.00;98889.59;5070317;28;20021;-70
2022/02/24 02:48:57;;;;;;;5.45;1.88;;;;;;;7.10;86.73;98889.59;5070185;28;20025;-70
2022/02/24 02:51:23;;;;;;;4.28;1.63;;;;;;;7.17;86.31;98880.84;5070728;28;20238;-70
2022/02/24 02:53:48;;;;;;;3.60;1.10;;;;;;;7.16;86.32;98875.63;5070608;28;20021;-70
2022/02/24 02:56:14;;;;;;;8.30;1.75;;;;;;;7.23;86.27;98872.09;5070293;28;20031;-70
2022/02/24 02:58:40;;;;;;;5.55;1.50;;;;;;;7.23;85.89;98865.13;5069457;28;20245;-70
2022/02/24 03:01:05;;;;;;;5.78;1.60;;;;;;;7.27;85.52;98872.09;5070059;28;20079;-70
2022/02/24 03:03:31;;;;;;;6.82;1.50;;;;;;;7.25;85.69;98866.00;5069883;28;20025;-70
2022/02/24 03:05:57;;;;;;;3.72;1.58;;;;;;;7.27;85.25;98851.16;5070172;28;20063;-70
2022/02/24 03:08:23;;;;;;;5.93;1.70;;;;;;;7.30;84.76;98856.38;5069284;28;20220;-70
2022/02/24 03:10:49;;;;;;;2.45;1.30;;;;;;;7.31;84.64;98850.25;5069714;28;20070;-70
2022/02/24 03:13:15;;;;;;;6.15;1.90;;;;;;;7.34;84.58;98850.25;5069680;28;20205;-70
2022/02/24 03:15:41;;;;;;;5.45;1.58;;;;;;;7.37;83.45;98845.00;5069502;28;20059;-70
2022/02/24 03:18:07;;;;;;;6.80;1.60;;;;;;;7.44;83.82;98838.00;5069829;28;20025;-70
2022/02/24 03:20:33;;;;;;;3.05;1.40;;;;;;;7.43;84.75;98846.75;5069552;28;20313;-70
2022/02/24 03:23:04;;;;;;;3.88;1.30;;;;;;;7.40;84.34;98842.38;5069926;28;20028;-70
2022/02/24 03:25:30;;;;;;;4.25;1.58;;;;;;;7.41;84.87;98833.66;5069518;28;20024;-70
2022/02/24 03:27:56;;;;;;;2.80;1.33;;;;;;;7.45;83.60;98824.91;5069351;28;20020;-70
2022/02/24 03:30:22;;;;;;;6.10;1.27;;;;;;;7.47;83.87;98817.91;5069712;28;20033;-70
2022/02/24 03:32:49;;;;;;;10.45;1.92;;;;;;;7.50;83.38;98822.28;5069405;28;20028;-70
2022/02/24 03:35:16;;;;;;;4.03;1.20;;;;;;;7.51;83.75;98818.78;5069462;28;20074;-70
2022/02/24 03:37:41;;;;;;;5.53;1.60;;;;;;;7.50;83.63;98817.88;5069295;28;20066;-70
2022/02/24 03:40:08;;;;;;;5.05;1.50;;;;;;;7.52;83.01;98810.91;5069327;28;20305;-70
2022/02/24 03:42:34;;;;;;;6.65;1.55;;;;;;;7.51;83.53;98817.03;5069292;28;20031;-70
2022/02/24 03:45:00;;;;;;;2.38;1.08;;;;;;;7.52;83.40;98813.53;5069849;28;20025;-70
2022/02/24 03:47:26;;;;;;;1.42;0.90;;;;;;;7.49;84.57;98810.03;5066688;28;20028;-70
2022/02/24 03:49:52;;;;;;;3.38;1.17;;;;;;;7.47;84.73;98804.81;5065088;28;20092;-70
2022/02/24 03:52:18;;;;;;;7.53;1.17;;;;;;;7.44;84.77;98796.09;5064022;28;20033;-70
2022/02/24 03:54:45;;;;;;;2.97;1.10;;;;;;;7.42;85.73;98792.63;5065005;28;20048;-70
2022/02/24 03:57:11;;;;;;;8.90;1.50;;;;;;;7.39;86.79;98798.75;5064916;28;20035;-70
2022/02/24 03:59:37;;;;;;;3.08;1.48;;;;;;;7.36;86.55;98792.63;5064723;28;20041;-70
2022/02/24 04:02:03;;;;;;;6.95;1.67;;;;;;;7.25;87.16;98795.31;5064248;28;20020;-70
2022/02/24 04:04:29;;;;;;;3.08;1.40;;;;;;;7.21;88.06;98788.34;5064003;28;20033;-70
2022/02/24 04:06:54;;;;;;;5.03;2.03;;;;;;;7.18;88.84;98787.50;5063916;28;20025;-70
2022/02/24 04:09:19;;;;;;;3.13;1.42;;;;;;;7.12;88.99;98783.13;5064122;28;20329;-70
2022/02/24 04:11:45;;;;;;;8.45;2.88;;;;;;;7.06;89.77;98783.19;5064106;28;20035;-70
2022/02/24 04:14:10;;;;;;;5.63;1.67;;;;;;;7.03;89.58;98788.41;5063948;28;20024;-70
2022/02/24 04:16:36;;;;;;;11.40;4.60;;;;;;;6.90;89.84;98781.47;5063957;28;20148;-70
2022/02/24 04:19:01;;;;;;;10.10;4.88;;;;;;;6.62;90.78;98771.94;5063940;28;20028;-70
2022/02/24 04:21:27;;;;;;;12.98;4.53;;;;;;;6.66;91.72;98776.28;5062628;28;20075;-70
2022/02/24 04:23:53;;;;;;;7.85;3.75;;;;;;;6.66;91.57;98768.44;5063570;28;20049;-70
2022/02/24 04:26:19;;;;;;;10.95;5.05;;;;;;;6.52;91.64;98757.16;5063922;28;20032;-70
2022/02/24 04:28:44;;;;;;;14.20;7.68;;;;;;;6.25;91.97;98767.63;5064046;28;20382;-70
2022/02/24 04:31:09;;;;;;;21.75;7.53;;;;;;;6.11;92.50;98758.91;5064292;28;20069;-70
2022/02/24 04:33:35;;;;;;;10.48;4.70;;;;;;;6.17;92.69;98753.69;5063841;28;20044;-70
2022/02/24 04:36:00;;;;;;;8.50;3.47;;;;;;;6.29;92.55;98754.53;5063711;28;20024;-70
2022/02/24 04:38:26;;;;;;;13.77;5.65;;;;;;;6.29;92.77;98748.44;5064099;28;20079;-70
2022/02/24 04:40:51;;;;;;;20.45;9.07;;;;;;;6.14;93.57;98745.84;5064219;28;20198;-70
2022/02/24 04:43:16;;;;;;;15.68;6.10;;;;;;;6.12;94.03;98739.75;5064082;28;20216;-70
2022/02/24 04:45:42;;;;;;;15.38;7.32;;;;;;;6.02;93.72;98738.84;5062965;28;20025;-70
2022/02/24 04:48:07;;;;;;;14.93;6.22;;;;;;;5.98;93.82;98733.66;5063679;28;20021;-70
2022/02/24 04:50:34;;;;;;;18.35;8.27;;;;;;;5.92;93.91;98724.06;5063100;28;20037;-70
2022/02/24 04:52:59;;;;;;;19.08;7.55;;;;;;;5.75;95.08;98727.50;5063758;28;20048;-70
2022/02/24 04:55:25;;;;;;;16.98;6.28;;;;;;;5.84;94.98;98732.75;5063190;28;20343;-70
2022/02/24 04:57:50;;;;;;;20.83;7.50;;;;;;;5.80;95.07;98720.53;5063552;28;20029;-70
2022/02/24 05:00:16;;;;;;;8.07;3.50;;;;;;;5.81;95.62;98722.28;5063217;28;20040;-70
2022/02/24 05:02:41;;;;;;;14.20;5.38;;;;;;;5.88;95.48;98709.25;5063009;28;20098;-70
2022/02/24 05:05:07;;;;;;;14.50;5.93;;;;;;;5.83;95.65;98707.53;5063150;28;20028;-70
2022/02/24 05:07:33;;;;;;;16.33;6.95;;;;;;;5.90;95.33;98701.41;5063696;28;20025;-70
2022/02/24 05:10:00;;;;;;;18.23;7.15;;;;;;;5.80;95.78;98704.88;5063367;28;20075;-70
2022/02/24 05:12:26;;;;;;;14.40;7.60;;;;;;;5.85;96.48;98692.69;5063783;28;20216;-70
2022/02/24 05:14:52;;;;;;;13.27;6.53;;;;;;;5.89;96.14;98695.31;5064101;28;20027;-70
2022/02/24 05:17:17;;;;;;;10.70;5.20;;;;;;;5.93;95.97;98691.84;5043018;28;20029;-70
2022/02/24 05:19:43;;;;;;;13.00;5.28;;;;;;;5.95;95.62;98692.72;5049737;28;20273;-70
2022/02/24 05:22:08;;;;;;;15.98;7.55;;;;;;;5.89;95.39;98684.03;5063263;28;20030;-70
2022/02/24 05:24:34;;;;;;;19.60;7.47;;;;;;;5.93;95.42;98686.63;5063116;28;20032;-70
2022/02/24 05:26:59;;;;;;;14.48;5.68;;;;;;;5.93;95.35;98680.53;5063142;28;20036;-70
2022/02/24 05:29:25;;;;;;;14.73;5.43;;;;;;;5.85;95.54;98667.47;5063008;28;20048;-70
2022/02/24 05:31:50;;;;;;;13.15;5.57;;;;;;;5.85;95.99;98664.84;5063154;28;20100;-70
2022/02/24 05:34:16;;;;;;;12.70;4.78;;;;;;;5.86;96.15;98668.34;5063248;28;20017;-70
2022/02/24 05:36:43;;;;;;;14.75;5.85;;;;;;;5.89;96.41;98673.56;5063262;28;20224;-67
2022/02/24 05:39:08;;;;;;;12.55;6.10;;;;;;;5.88;95.96;98671.81;5063432;28;20051;-69
2022/02/24 05:41:34;;;;;;;17.55;5.70;;;;;;;5.85;96.22;98672.69;5063523;28;20044;-69
2022/02/24 05:43:59;;;;;;;19.30;6.28;;;;;;;5.86;95.96;98669.19;5063436;28;20036;-69
2022/02/24 05:46:25;;;;;;;18.35;6.85;;;;;;;5.70;96.62;98666.56;5063457;28;20243;-69
2022/02/24 05:48:50;;;;;;;20.38;7.53;;;;;;;5.65;96.85;98657.84;5063502;28;20029;-69
2022/02/24 05:51:15;;;;;;;14.13;6.28;;;;;;;5.68;96.98;98663.06;5063415;28;20024;-70
2022/02/24 05:53:41;;;;;;;20.02;6.75;;;;;;;5.71;96.50;98652.63;5063366;28;20072;-70
2022/02/24 05:56:07;;;;;;;12.55;4.90;;;;;;;5.75;96.83;98664.81;5063620;28;20025;-70
2022/02/24 05:58:33;;;;;;;11.68;5.65;;;;;;;5.72;96.54;98664.81;5063360;28;20075;-70
2022/02/24 06:00:58;;;;;;;16.23;5.78;;;;;;;5.76;96.60;98656.13;5063148;28;20052;-70
2022/02/24 06:03:24;;;;;;;13.10;5.05;;;;;;;5.78;96.34;98654.38;5063218;28;20025;-70
2022/02/24 06:05:53;;;;;;;14.43;5.43;;;;;;;5.73;96.57;98646.53;5063320;28;20044;-70
2022/02/24 06:08:19;;;;;;;15.20;6.22;;;;;;;5.70;96.66;98637.84;5063487;28;20313;-70
2022/02/24 06:10:45;;;;;;;14.38;5.90;;;;;;;5.68;96.16;98636.97;5063201;28;20086;-70
2022/02/24 06:13:10;;;;;;;13.82;5.47;;;;;;;5.65;96.49;98631.75;5063216;28;20021;-70
2022/02/24 06:15:36;;;;;;;14.48;6.22;;;;;;;5.61;96.60;98632.63;5065848;28;20324;-70
2022/02/24 06:18:08;;;;;;;13.38;6.40;;;;;;;5.55;97.01;98640.44;5066918;28;20033;-70
2022/02/24 06:20:34;;;;;;;9.90;5.28;;;;;;;5.60;97.15;98638.72;5066804;28;20059;-70
2022/02/24 06:23:00;;;;;;;20.67;7.60;;;;;;;5.54;97.25;98620.44;5066647;28;20025;-70
2022/02/24 06:25:26;;;;;;;16.33;5.78;;;;;;;5.54;96.77;98625.66;5066669;28;20116;-70
2022/02/24 06:27:52;;;;;;;18.65;7.75;;;;;;;5.44;97.17;98621.31;5066655;28;20029;-70
2022/02/24 06:30:17;;;;;;;29.40;10.95;;;;;;;5.40;97.02;98614.34;5066596;28;20051;-70
2022/02/24 06:32:43;;;;;;;26.52;11.65;;;;;;;5.41;97.68;98616.09;5066562;28;20033;-70
2022/02/24 06:35:12;;;;;;;18.08;8.25;;;;;;;5.36;96.71;98613.47;5065439;28;20024;-70
2022/02/24 06:37:45;;;;;;;20.20;7.70;;;;;;;5.29;96.69;98616.06;5066025;28;20021;-70
2022/02/24 06:40:12;;;;;;;10.48;5.25;;;;;;;5.25;97.17;98620.41;5066394;28;20047;-70
2022/02/24 06:42:37;;;;;;;11.63;6.28;;;;;;;5.29;97.14;98619.56;5066392;28;20031;-70
2022/02/24 06:45:04;;;;;;;10.05;5.28;;;;;;;5.23;97.45;98606.50;5066249;28;20044;-70
2022/02/24 06:47:30;;;;;;;16.52;4.40;;;;;;;5.22;97.51;98607.34;5066257;28;20028;-70
2022/02/24 06:49:56;;;;;;;19.75;6.57;;;;;;;5.05;97.51;98610.81;5066325;28;20044;-70
2022/02/24 06:52:21;;;;;;;14.25;6.15;;;;;;;5.09;97.76;98608.22;5066215;28;20029;-70
2022/02/24 06:54:47;;;;;;;13.77;5.78;;;;;;;5.05;97.97;98610.81;5066122;28;20021;-70
2022/02/24 06:57:12;;;;;;;13.75;6.55;;;;;;;5.20;98.29;98613.44;5066104;28;20049;-70
2022/02/24 06:59:37;;;;;;;17.40;7.05;;;;;;;5.25;98.16;98603.91;5065879;28;20052;-70
2022/02/24 07:02:04;;;;;;;15.77;6.18;;;;;;;5.31;98.01;98609.13;5066005;28;20036;-70
2022/02/24 07:04:30;;;;;;;17.15;6.07;;;;;;;5.38;98.11;98600.44;5065904;28;20021;-70
2022/02/24 07:06:57;;;;;;;15.40;5.63;;;;;;;5.32;97.38;98595.22;5065940;28;20348;-70
2022/02/24 07:09:24;;;;;;;16.02;6.07;;;;;;;5.33;97.40;98591.72;5065934;28;20025;-70
2022/02/24 07:11:49;;;;;;;11.35;5.93;;;;;;;5.40;97.54;98594.34;5066104;28;20043;-70
2022/02/24 07:14:15;;;;;;;14.95;6.05;;;;;;;5.49;97.24;98588.25;5065799;28;20376;-70
2022/02/24 07:16:40;;;;;;;12.15;5.65;;;;;;;5.53;97.22;98589.97;5065760;28;20083;-70
2022/02/24 07:19:06;;;;;;;17.55;6.43;;;;;;;5.64;97.46;98588.25;5065701;28;20032;-70
2022/02/24 07:21:31;;;;;;;14.18;6.63;;;;;;;5.65;96.87;98584.75;5065653;28;20390;-70
2022/02/24 07:23:56;;;;;;;16.63;8.02;;;;;;;5.67;96.72;98580.41;5065416;28;20028;-70
2022/02/24 07:26:22;;;;;;;13.45;7.22;;;;;;;5.80;96.47;98584.75;5065356;28;20268;-70
2022/02/24 07:28:47;;;;;;;21.45;9.18;;;;;;;5.86;96.46;98584.78;5065488;28;20024;-70
2022/02/24 07:31:13;;;;;;;16.67;8.18;;;;;;;5.94;96.34;98589.09;5065436;28;20029;-70
2022/02/24 07:33:38;;;;;;;18.10;8.70;;;;;;;5.95;95.97;98574.31;5065370;28;20025;-70
2022/02/24 07:36:05;;;;;;;21.55;10.00;;;;;;;6.05;95.85;98578.63;5065403;28;20056;-70
2022/02/24 07:38:30;;;;;;;24.02;9.05;;;;;;;6.22;95.83;98569.88;5065306;28;20258;-70
2022/02/24 07:40:56;;;;;;;21.10;8.05;;;;;;;6.40;95.16;98579.41;5065339;28;20071;-70
2022/02/24 07:43:21;;;;;;;19.05;8.02;;;;;;;6.50;95.91;98574.13;5065221;28;20273;-70
2022/02/24 07:45:47;;;;;;;18.65;8.48;;;;;;;6.67;96.02;98573.19;5065173;28;20343;-70
2022/02/24 07:48:12;;;;;;;12.18;4.50;;;;;;;6.82;95.22;98579.19;5065126;28;20082;-70
2022/02/24 07:50:38;;;;;;;6.38;3.97;;;;;;;7.00;95.55;98567.75;5065117;28;20217;-70
2022/02/24 07:53:03;;;;;;;10.52;3.97;;;;;;;7.15;95.86;98563.25;5065010;28;20070;-70
2022/02/24 07:55:29;;;;;;;9.45;3.42;;;;;;;7.31;95.03;98569.28;5065012;28;20032;-70
2022/02/24 07:57:55;;;;;;;7.80;4.20;;;;;;;7.39;95.21;98573.56;5064906;28;20092;-70
2022/02/24 08:00:20;;;;;;;10.90;3.80;;;;;;;7.48;95.31;98573.50;5064745;28;20054;-70
2022/02/24 08:02:47;;;;;;;6.35;3.13;;;;;;;7.58;95.21;98576.91;5064848;28;20024;-70
2022/02/24 08:05:13;;;;;;;6.97;4.03;;;;;;;7.62;94.17;98568.13;5064746;28;20088;-70
2022/02/24 08:07:39;;;;;;;35.00;14.43;;;;;;;7.58;94.87;98569.91;5064721;28;20248;-70
2022/02/24 08:10:06;;;;;;;30.83;14.57;;;;;;;7.65;95.59;98566.34;5064706;28;20033;-70
2022/02/24 08:12:44;;;;;;;24.77;10.73;;;;;;;7.69;95.03;98567.22;5064692;28;20025;-70
2022/02/24 08:15:12;;;;;;;45.72;23.13;;;;;;;7.83;93.86;98575.78;5064642;28;20032;-70
2022/02/24 08:17:39;;;;;;;41.53;20.20;;;;;;;7.82;93.39;98568.84;5064536;28;20027;-70
2022/02/24 08:20:07;;;;;;;24.75;12.13;;;;;;;7.90;92.53;98569.59;5064775;28;20016;-70
2022/02/24 08:22:35;;;;;;;16.13;7.40;;;;;;;8.04;91.15;98571.22;5064711;28;20025;-70
2022/02/24 08:25:00;;;;;;;6.63;1.98;;;;;;;8.35;86.51;98567.41;5064365;28;20321;-70
2022/02/24 08:27:26;;;;;;;8.30;1.60;;;;;;;8.58;85.04;98562.75;5064395;28;20024;-70
2022/02/24 08:29:51;;;;;;;3.70;1.63;;;;;;;8.79;84.69;98554.59;5064374;28;20032;-69
2022/02/24 08:32:17;;;;;;;2.78;1.50;;;;;;;9.02;83.24;98549.03;5064308;28;20067;-70
2022/02/24 08:34:42;;;;;;;6.22;1.50;;;;;;;9.27;82.42;98554.78;5064308;28;20023;-70
2022/02/24 08:37:07;;;;;;;10.55;1.98;;;;;;;9.39;82.27;98546.69;5063711;28;20340;-70
2022/02/24 08:39:33;;;;;;;5.13;1.48;;;;;;;9.66;80.29;98546.25;5064444;28;20025;-70
2022/02/24 08:41:58;;;;;;;2.30;1.20;;;;;;;9.79;79.88;98542.50;5064179;28;20044;-70
2022/02/24 08:44:24;;;;;;;5.28;1.60;;;;;;;9.92;80.03;98544.03;5064074;28;20255;-70
2022/02/24 08:46:49;;;;;;;7.35;1.75;;;;;;;10.04;78.16;98534.16;5064093;28;20025;-70
2022/02/24 08:49:15;;;;;;;3.25;1.40;;;;;;;10.43;77.21;98527.25;5064066;28;20371;-70
2022/02/24 08:51:40;;;;;;;3.63;1.23;;;;;;;10.63;77.10;98525.06;5064039;28;20035;-70
2022/02/24 08:54:06;;;;;;;4.40;1.88;;;;;;;10.66;77.00;98525.00;5063988;28;20017;-70
2022/02/24 08:56:31;;;;;;;5.28;1.50;;;;;;;11.13;75.99;98516.94;5064057;28;20025;-70
2022/02/24 08:58:57;;;;;;;5.93;1.63;;;;;;;11.03;75.74;98512.78;5063751;28;20021;-70
2022/02/24 09:01:23;;;;;;;7.57;1.70;;;;;;;10.98;75.47;98498.84;5063958;28;20021;-70
2022/02/24 09:03:48;;;;;;;4.38;1.73;;;;;;;11.09;75.92;98509.13;5063776;28;20084;-70
2022/02/24 09:06:16;;;;;;;8.43;2.22;;;;;;;11.37;74.73;98511.09;5063829;28;20082;-70
2022/02/24 09:08:43;;;;;;;7.43;2.08;;;;;;;11.17;74.40;98491.38;5063829;28;20060;-70
2022/02/24 09:11:09;;;;;;;7.15;2.28;;;;;;;11.33;74.64;98504.13;5063790;28;20040;-70
2022/02/24 09:13:35;;;;;;;7.57;1.83;;;;;;;11.55;74.42;98502.69;5063788;28;20020;-70
2022/02/24 09:16:00;;;;;;;2.92;1.35;;;;;;;11.68;74.69;98490.97;5063759;28;20027;-70
2022/02/24 09:18:26;;;;;;;8.80;2.35;;;;;;;11.67;74.50;98491.88;5063818;28;20359;-70
2022/02/24 09:20:51;;;;;;;2.13;1.58;;;;;;;11.71;75.14;98490.03;5063714;28;20028;-70
2022/02/24 09:23:17;;;;;;;6.72;2.10;;;;;;;11.85;73.43;98478.22;5063598;28;20060;-70
2022/02/24 09:25:42;;;;;;;5.00;1.98;;;;;;;11.61;75.24;98492.00;5063592;28;20036;-70
2022/02/24 09:28:08;;;;;;;5.50;1.98;;;;;;;11.82;74.95;98487.97;5063614;28;20043;-70
2022/02/24 09:30:34;;;;;;;4.22;1.52;;;;;;;12.65;72.63;98482.06;5063672;28;20033;-70
2022/02/24 09:32:59;;;;;;;4.97;1.95;;;;;;;12.63;71.82;98490.94;5063867;28;20032;-70
2022/02/24 09:35:25;;;;;;;3.33;1.92;;;;;;;12.26;73.42;98475.31;5063596;28;20021;-70
2022/02/24 09:37:50;;;;;;;8.70;2.92;;;;;;;11.96;74.49;98476.16;5063573;28;20048;-70
2022/02/24 09:40:16;;;;;;;6.40;2.53;;;;;;;11.77;74.14;98469.63;5063523;28;20028;-70
2022/02/24 09:42:42;;;;;;;9.70;2.30;;;;;;;11.59;75.34;98475.38;5063765;28;20028;-70
2022/02/24 09:45:08;;;;;;;8.35;2.65;;;;;;;11.31;76.70;98469.06;5063379;28;20031;-70
2022/02/24 09:47:39;;;;;;;5.88;1.83;;;;;;;11.47;76.86;98459.88;5063442;28;20340;-70
2022/02/24 09:50:07;;;;;;;4.30;1.98;;;;;;;11.44;76.35;98454.69;5065642;28;20086;-70
2022/02/24 09:52:33;;;;;;;6.55;2.10;;;;;;;11.38;76.79;98444.28;5067301;28;20043;-70
2022/02/24 09:54:59;;;;;;;9.45;2.20;;;;;;;11.55;76.47;98443.88;5067262;28;20016;-70
2022/02/24 09:57:25;;;;;;;3.92;2.00;;;;;;;11.49;75.77;98437.00;5067224;28;20048;-70
2022/02/24 09:59:50;;;;;;;10.20;2.53;;;;;;;11.49;75.61;98451.94;5067044;28;20032;-70
2022/02/24 10:02:16;;;;;;;3.42;1.75;;;;;;;11.40;75.93;98447.78;5067171;28;20087;-70
2022/02/24 10:05:03;;;;;;;6.03;2.40;;;;;;;11.14;76.87;98429.13;5067054;28;20036;-70
2022/02/24 10:07:28;;;;;;;11.80;2.25;;;;;;;11.23;76.94;98426.22;5067047;28;20070;-70
2022/02/24 10:09:54;;;;;;;6.95;2.40;;;;;;;11.31;77.25;98426.91;5067295;28;20040;-70
2022/02/24 10:12:19;;;;;;;6.55;2.17;;;;;;;11.12;76.99;98415.13;5066973;28;20024;-70
2022/02/24 10:14:45;;;;;;;7.63;2.65;;;;;;;11.14;77.40;98425.63;5066923;28;20021;-70
2022/02/24 10:17:10;;;;;;;7.20;2.42;;;;;;;11.17;77.07;98429.00;5066884;28;20040;-70
2022/02/24 10:19:48;;;;;;;5.47;2.60;;;;;;;11.21;76.86;98425.41;5066848;28;20025;-70
2022/02/24 10:22:25;;;;;;;7.13;2.53;;;;;;;11.22;77.07;98424.50;5066814;28;20024;-70
2022/02/24 10:25:02;;;;;;;7.05;2.30;;;;;;;11.56;77.30;98420.09;5066721;28;20032;-70
2022/02/24 10:27:35;;;;;;;4.82;2.33;;;;;;;11.61;77.03;98412.91;5066702;28;20017;-70
2022/02/24 10:30:06;;;;;;;;;;;;;;;11.73;74.80;98419.66;5067334;28;20236;-70
2022/02/24 10:32:31;;;;;;;7.68;2.55;;;;;;;12.08;74.79;98423.06;5066639;28;19905;-70
2022/02/24 10:35:19;;;;;;;6.38;2.30;;;;;;;12.28;74.50;98428.59;5066548;28;20355;-70
2022/02/24 10:38:01;;;;;;;5.63;2.40;;;;;;;12.23;73.85;98425.25;5066481;28;20024;-70
2022/02/24 10:40:30;;;;;;;3.90;2.20;;;;;;;12.06;74.01;98414.31;5066726;28;20336;-70
2022/02/24 10:43:31;;;;;;;5.65;2.58;;;;;;;12.21;74.00;98418.31;5066364;28;20333;-70
2022/02/24 10:46:06;;;;;;;8.68;2.53;;;;;;;11.99;74.75;98412.75;5065241;28;20224;-70
2022/02/24 10:48:46;;;;;;;7.10;2.08;;;;;;;12.15;74.54;98418.47;5066395;28;20263;-70
2022/02/24 10:51:11;;;;;;;5.88;2.10;;;;;;;11.84;74.62;98415.84;5066266;28;20029;-70
2022/02/24 10:53:36;;;;;;;4.47;2.30;;;;;;;11.89;73.77;98411.28;5066187;28;20021;-70
2022/02/24 10:56:10;;;;;;;6.82;2.42;;;;;;;11.75;74.42;98402.03;5066210;28;20025;-70
2022/02/24 10:58:41;;;;;;;13.27;2.50;;;;;;;11.71;74.38;98398.63;5066142;28;20025;-70
2022/02/24 11:01:12;;;;;;;8.68;2.72;;;;;;;11.63;75.53;98392.69;5065536;28;20029;-70
2022/02/24 11:03:39;;;;;;;6.65;2.63;;;;;;;11.52;75.21;98391.22;5066173;28;20021;-70
2022/02/24 11:06:07;;;;;;;6.10;2.42;;;;;;;11.54;74.41;98387.66;5065933;28;20316;-70
2022/02/24 11:08:33;;;;;;;4.88;2.35;;;;;;;11.60;74.51;98392.75;5065912;28;20021;-70
2022/02/24 11:10:59;;;;;;;3.58;1.73;;;;;;;11.64;74.95;98399.69;5065862;28;20025;-70
2022/02/24 11:13:28;;;;;;;6.53;2.42;;;;;;;11.67;75.51;98404.88;5066098;28;20142;-70
2022/02/24 11:15:54;;;;;;;5.65;1.88;;;;;;;11.68;73.87;98395.22;5066026;28;20020;-70
2022/02/24 11:18:21;;;;;;;6.25;2.35;;;;;;;11.68;73.67;98396.06;5066042;28;20048;-70
2022/02/24 11:20:47;;;;;;;5.63;2.65;;;;;;;11.72;74.50;98381.03;5065665;28;20029;-70
2022/02/24 11:23:14;;;;;;;3.53;1.77;;;;;;;11.64;74.97;98368.06;5065604;28;20021;-70
2022/02/24 11:25:53;;;;;;;7.10;2.50;;;;;;;11.78;74.43;98360.66;5065531;28;20048;-70
2022/02/24 11:28:21;;;;;;;6.80;2.33;;;;;;;11.84;74.90;98371.03;5065575;28;20080;-70
2022/02/24 11:30:53;;;;;;;5.57;1.80;;;;;;;11.81;74.59;98360.56;5065497;28;20217;-70